Pagrindinis puslapis
METAR-TAF:

METAR-TAF

Oro uostai :

Skelton Airport

Eureka, Aliaska, Jungtinės Amerikos Valstijos

platuma: 61-56N, ilguma: 147-10W, Aukštis: 1002 m

Dabartinis oras

Ataskaita buvo paskelbta 12 minutes, ne 04:56 UTC
Vėjas 6 kt iš Šiaurės Vakarų
Temperatūra -21°C
Drėgmė 77%
Slėgis 1009 hPa
Matomumas: 16.1 km
Giedras dangus

METAR: PAZK 290456Z AUTO 32006KT 10SM CLR M21/M24 A2980 RMK AO2 SLP202 T12111239 FZRANO

Laikas: 20:08 (05:08 UTC)


TAF: trūkstamas

Orai ataskaitas ir orų prognozės (METAR, TAF).

turimą stotys yra geltonos ir raudonos taškus žemėlapyje.

Perkelti pele per norėdami pamatyti stoties vardą.

Tada spustelėkite, norėdami matyti oro stebėjimo ir prognozės.

Norėdami pakeisti žemėlapį: spustelėkite ant žalios mygtukų su juodo kryžiaus žemyn,; žalią mygtuką su brūkšneliu, jei norite nutolinti; arba žalių rodyklių gretimoms žemėlapius.


METAR-TAF: